createdAt,value
2023-03-02T00:00:20.164Z,100758.64
2023-03-02T00:05:29.465Z,100758.80
2023-03-02T00:10:38.296Z,100754.82
2023-03-02T00:15:46.547Z,100756.56
2023-03-02T00:20:55.164Z,100754.83
2023-03-02T00:26:04.440Z,100749.44
2023-03-02T00:31:12.825Z,100744.91
2023-03-02T00:36:23.608Z,100732.58
2023-03-02T00:41:31.851Z,100732.06
2023-03-02T00:46:40.250Z,100729.45
2023-03-02T00:51:48.946Z,100724.58
2023-03-02T00:56:57.618Z,100721.62
2023-03-02T01:02:05.526Z,100724.92
2023-03-02T01:07:15.255Z,100719.36
2023-03-02T01:12:23.964Z,100714.48
2023-03-02T01:17:31.499Z,100708.58
2023-03-02T01:22:39.686Z,100708.22
2023-03-02T01:27:48.839Z,100703.52
2023-03-02T01:32:56.407Z,100702.31
2023-03-02T01:38:03.830Z,100703.52
2023-03-02T01:43:16.563Z,100702.64
2023-03-02T01:48:30.073Z,100698.29
2023-03-02T01:53:39.153Z,100693.08
2023-03-02T01:58:50.265Z,100682.98
2023-03-02T02:03:58.911Z,100683.31
2023-03-02T02:09:09.305Z,100675.48
2023-03-02T02:14:17.174Z,100675.61
2023-03-02T02:19:37.528Z,100676.63
2023-03-02T02:24:48.434Z,100678.67
2023-03-02T02:29:58.602Z,100676.70
2023-03-02T02:35:15.505Z,100682.54
2023-03-02T02:40:25.979Z,100679.35
2023-03-02T02:45:36.180Z,100678.39
2023-03-02T02:50:44.762Z,100680.23
2023-03-02T02:55:56.227Z,100678.25
2023-03-02T03:01:05.810Z,100668.45
2023-03-02T03:06:23.712Z,100667.52
2023-03-02T03:11:33.919Z,100666.92
2023-03-02T03:16:44.623Z,100672.57
2023-03-02T03:21:55.004Z,100672.66
2023-03-02T03:27:05.786Z,100668.24
2023-03-02T03:32:15.325Z,100667.64
2023-03-02T03:37:24.031Z,100676.58
2023-03-02T03:42:32.821Z,100675.97
2023-03-02T03:47:41.976Z,100682.13
2023-03-02T03:52:51.371Z,100677.35
2023-03-02T03:58:04.146Z,100678.46
2023-03-02T04:03:12.898Z,100679.55
2023-03-02T04:08:21.620Z,100676.02
2023-03-02T04:13:30.198Z,100670.17
2023-03-02T04:18:38.975Z,100664.19
2023-03-02T04:23:46.406Z,100667.37
2023-03-02T04:28:54.214Z,100673.15
2023-03-02T04:34:04.800Z,100671.14
2023-03-02T04:39:15.599Z,100652.23
2023-03-02T04:44:24.829Z,100664.70
2023-03-02T04:49:32.256Z,100661.65
2023-03-02T04:54:40.782Z,100657.19
2023-03-02T04:59:49.081Z,100656.19
2023-03-02T05:04:57.988Z,100655.91
2023-03-02T05:10:07.056Z,100657.00
2023-03-02T05:15:15.476Z,100661.76
2023-03-02T05:20:28.231Z,100661.13
2023-03-02T05:25:38.159Z,100663.27
2023-03-02T05:30:46.433Z,100666.98
2023-03-02T05:35:54.980Z,100661.20
2023-03-02T05:41:03.916Z,100667.88
2023-03-02T05:46:11.476Z,100671.83
2023-03-02T05:51:19.744Z,100675.60
2023-03-02T05:56:27.222Z,100675.26
2023-03-02T06:01:35.856Z,100679.09
2023-03-02T06:06:43.718Z,100683.82
2023-03-02T06:11:51.978Z,100680.29
2023-03-02T06:17:00.901Z,100683.89
2023-03-02T06:22:09.794Z,100683.88
2023-03-02T06:27:18.499Z,100672.80
2023-03-02T06:32:27.145Z,100669.86
2023-03-02T06:37:35.820Z,100675.89
2023-03-02T06:42:44.953Z,100680.52
2023-03-02T06:47:53.410Z,100686.04
2023-03-02T06:53:02.037Z,100686.35
2023-03-02T06:58:13.604Z,100663.38
2023-03-02T07:03:22.534Z,100677.45
2023-03-02T07:08:31.311Z,100687.27
2023-03-02T07:13:39.779Z,100685.67
2023-03-02T07:18:48.129Z,100688.54
2023-03-02T07:23:56.499Z,100683.80
2023-03-02T07:29:03.946Z,100680.83
2023-03-02T07:34:12.641Z,100677.15
2023-03-02T07:39:21.313Z,100669.10
2023-03-02T07:44:30.346Z,100665.91
2023-03-02T07:49:37.729Z,100668.09
2023-03-02T07:54:45.055Z,100668.38
2023-03-02T07:59:52.737Z,100667.56
2023-03-02T08:05:01.199Z,100670.23
2023-03-02T08:10:11.576Z,100665.95
2023-03-02T08:15:20.141Z,100658.36
2023-03-02T08:20:28.574Z,100660.83
2023-03-02T08:25:38.986Z,100658.63
2023-03-02T08:30:47.153Z,100655.21
2023-03-02T08:36:01.708Z,100655.63
2023-03-02T08:41:12.708Z,100651.02
2023-03-02T08:46:21.930Z,100654.92
2023-03-02T08:51:31.073Z,100657.95
2023-03-02T08:56:41.207Z,100658.02
2023-03-02T09:01:49.675Z,100654.96
2023-03-02T09:06:58.887Z,100647.89
2023-03-02T09:12:08.109Z,100640.95
2023-03-02T09:17:17.928Z,100634.38
2023-03-02T09:22:26.567Z,100629.86
2023-03-02T09:27:35.305Z,100639.77
2023-03-02T09:32:44.072Z,100637.34
2023-03-02T09:37:53.456Z,100638.55
2023-03-02T09:43:18.069Z,100633.14
2023-03-02T09:48:35.070Z,100629.30
2023-03-02T09:53:55.103Z,100630.00
2023-03-02T09:59:08.710Z,100619.19
2023-03-02T10:04:26.577Z,100615.34
2023-03-02T10:09:34.167Z,100609.25
2023-03-02T10:14:48.054Z,100613.94
2023-03-02T10:19:59.867Z,100609.92
2023-03-02T10:25:19.962Z,100607.48
2023-03-02T10:30:33.011Z,100607.64
2023-03-02T10:35:47.897Z,100605.36
2023-03-02T10:41:01.407Z,100606.03
2023-03-02T10:46:11.792Z,100603.04
2023-03-02T10:51:29.721Z,100598.48
2023-03-02T10:56:38.092Z,100593.94
2023-03-02T11:01:46.282Z,100586.77
2023-03-02T11:06:56.113Z,100584.14
2023-03-02T11:12:04.034Z,100577.48
2023-03-02T11:17:33.545Z,100572.91
2023-03-02T11:22:49.735Z,100561.88
2023-03-02T11:28:03.125Z,100557.09
2023-03-02T11:33:19.274Z,100550.73
2023-03-02T11:38:30.638Z,100542.95
2023-03-02T11:43:38.185Z,100539.20
2023-03-02T11:48:49.400Z,100535.45
2023-03-02T11:54:00.305Z,100538.32
2023-03-02T11:59:14.860Z,100531.41
2023-03-02T12:04:34.480Z,100527.23
2023-03-02T12:09:43.279Z,100522.52
2023-03-02T12:14:52.962Z,100516.09
2023-03-02T12:20:27.404Z,100515.77
2023-03-02T12:25:52.029Z,100514.02
2023-03-02T12:31:12.656Z,100506.52
2023-03-02T12:36:28.043Z,100501.48
2023-03-02T12:41:50.012Z,100494.88
2023-03-02T12:47:02.962Z,100491.10
2023-03-02T12:52:32.270Z,100488.03
2023-03-02T12:57:49.850Z,100486.88
2023-03-02T13:03:00.342Z,100484.84
2023-03-02T13:08:11.478Z,100479.85
2023-03-02T13:13:22.729Z,100475.57
2023-03-02T13:18:34.465Z,100476.39
2023-03-02T13:23:49.777Z,100474.95
2023-03-02T13:29:07.341Z,100468.95
2023-03-02T13:34:31.428Z,100460.54
2023-03-02T13:39:40.289Z,100455.30
2023-03-02T13:44:51.094Z,100449.17
2023-03-02T13:50:11.335Z,100443.44
2023-03-02T13:55:22.438Z,100436.24
2023-03-02T14:00:33.447Z,100430.29
2023-03-02T14:05:40.957Z,100428.55
2023-03-02T14:10:50.181Z,100424.73
2023-03-02T14:15:58.245Z,100417.05
2023-03-02T14:21:07.653Z,100408.88
2023-03-02T14:26:33.412Z,100404.20
2023-03-02T14:31:41.977Z,100403.90
2023-03-02T14:36:53.713Z,100397.48
2023-03-02T14:42:02.054Z,100389.85
2023-03-02T14:47:11.091Z,100388.87
2023-03-02T14:52:25.108Z,100369.12
2023-03-02T14:57:38.737Z,100376.17
2023-03-02T15:02:47.029Z,100369.55
2023-03-02T15:07:58.761Z,100363.77
2023-03-02T15:13:07.631Z,100360.64
2023-03-02T15:18:20.254Z,100356.48
2023-03-02T15:23:29.102Z,100353.09
2023-03-02T15:28:37.874Z,100350.37
2023-03-02T15:33:47.808Z,100353.93
2023-03-02T15:38:57.174Z,100346.16
2023-03-02T15:44:06.710Z,100341.02
2023-03-02T15:49:15.950Z,100333.79
2023-03-02T15:54:25.011Z,100331.95
2023-03-02T15:59:35.145Z,100334.14
2023-03-02T16:04:43.436Z,100334.27
2023-03-02T16:09:52.725Z,100333.17
2023-03-02T16:15:01.842Z,100330.73
2023-03-02T16:20:12.200Z,100329.34
2023-03-02T16:25:20.575Z,100330.06
2023-03-02T16:30:28.243Z,100332.92
2023-03-02T16:35:37.544Z,100328.80
2023-03-02T16:40:44.931Z,100324.30
2023-03-02T16:45:53.133Z,100327.30
2023-03-02T16:51:00.924Z,100330.13
2023-03-02T16:56:10.531Z,100327.00
2023-03-02T17:01:21.771Z,100328.91
2023-03-02T17:06:29.697Z,100330.30
2023-03-02T17:11:37.877Z,100327.50
2023-03-02T17:16:46.607Z,100322.23
2023-03-02T17:21:58.704Z,100322.37
2023-03-02T17:27:15.962Z,100326.13
2023-03-02T17:32:35.041Z,100323.10
2023-03-02T17:37:44.265Z,100327.67
2023-03-02T17:42:54.545Z,100320.10
2023-03-02T17:48:04.299Z,100320.48
2023-03-02T17:53:13.201Z,100320.17
2023-03-02T17:58:21.046Z,100315.69
2023-03-02T18:03:30.250Z,100309.61
2023-03-02T18:08:37.946Z,100309.61
2023-03-02T18:13:47.171Z,100309.27
2023-03-02T18:18:55.317Z,100307.00
2023-03-02T18:24:03.490Z,100302.49
2023-03-02T18:29:11.672Z,100301.09
2023-03-02T18:34:20.174Z,100297.60
2023-03-02T18:39:28.448Z,100297.40
2023-03-02T18:44:37.511Z,100302.08
2023-03-02T18:49:46.122Z,100302.39
2023-03-02T18:54:57.983Z,100301.34
2023-03-02T19:00:07.153Z,100298.89
2023-03-02T19:05:15.021Z,100300.95
2023-03-02T19:10:23.572Z,100300.25
2023-03-02T19:15:33.459Z,100294.16
2023-03-02T19:20:42.322Z,100290.33
2023-03-02T19:25:52.039Z,100292.73
2023-03-02T19:31:04.284Z,100290.64
2023-03-02T19:36:13.997Z,100290.09
2023-03-02T19:41:23.533Z,100294.23
2023-03-02T19:46:31.934Z,100297.52
2023-03-02T19:51:41.168Z,100291.61
2023-03-02T19:56:54.223Z,100294.02
2023-03-02T20:02:03.336Z,100289.66
2023-03-02T20:07:11.915Z,100287.92
2023-03-02T20:12:20.342Z,100282.34
2023-03-02T20:17:29.253Z,100281.63
2023-03-02T20:22:37.408Z,100281.09
2023-03-02T20:27:45.713Z,100279.70
2023-03-02T20:32:54.352Z,100276.40
2023-03-02T20:38:06.055Z,100277.27
2023-03-02T20:43:13.741Z,100268.77
2023-03-02T20:48:22.655Z,100269.12
2023-03-02T20:53:31.435Z,100262.36
2023-03-02T20:58:41.643Z,100264.45
2023-03-02T21:03:50.431Z,100251.45
2023-03-02T21:08:59.859Z,100237.93
2023-03-02T21:14:08.168Z,100238.77
2023-03-02T21:19:19.048Z,100237.90
2023-03-02T21:24:28.020Z,100239.95
2023-03-02T21:29:36.669Z,100234.73
2023-03-02T21:34:45.294Z,100224.30
2023-03-02T21:39:53.324Z,100223.92
2023-03-02T21:45:00.983Z,100227.89
2023-03-02T21:50:11.681Z,100223.20
2023-03-02T21:55:19.615Z,100215.05
2023-03-02T22:00:29.731Z,100205.48
2023-03-02T22:05:38.409Z,100185.20
2023-03-02T22:10:48.044Z,100181.02
2023-03-02T22:16:06.015Z,100167.13
2023-03-02T22:21:30.520Z,100155.67
2023-03-02T22:26:42.746Z,100161.17
2023-03-02T22:31:49.931Z,100161.35
2023-03-02T22:37:05.244Z,100155.96
2023-03-02T22:42:17.849Z,100155.09
2023-03-02T22:47:25.705Z,100154.39
2023-03-02T22:52:43.736Z,100148.30
2023-03-02T22:57:51.364Z,100150.70
2023-03-02T23:03:00.478Z,100143.95
2023-03-02T23:08:22.712Z,100132.31
2023-03-02T23:13:42.323Z,100132.31
2023-03-02T23:18:51.902Z,100122.11
2023-03-02T23:23:59.440Z,100118.31
2023-03-02T23:29:07.780Z,100121.97
2023-03-02T23:34:17.145Z,100107.81
2023-03-02T23:39:25.923Z,100092.63
2023-03-02T23:44:34.619Z,100090.57
2023-03-02T23:49:43.121Z,100087.66
2023-03-02T23:54:51.790Z,100074.71
